Aérodrome :
LOGIN :

S'inscrire | Disclaimer

   EN    FR    IT 

 










Légende :    VFR   VFR Marginal   IFR   IFR Intensif   IFR Très Intensif
Visi : 
Plafond : 
>= 8 km
>= 3000ft
5 à 8 km
1000 à 3000 ft
1500m à 5 km
500 à 1000 ft
800 à 1500m
200 à 500 ft
< 800m
< 200 ft
Symboles :   Orages  Brouillard  Fortes neiges  Fortes précipitations  Vent > 20 kt
SIGMETs :   Divers  Orages  Givrage  Turbulence  Onde Orograph.  Cendres Volcan.







- Altitude de l'aérodrome : 1411 ft
- Code IATA : GVA


LSGG - Genève Cointrin

DERNIER METAR :
  • 210920Z 23015KT CAVOK 26/12 Q1017 NOSIG

METARs EXPIRÉS :
  • 210850Z AUTO 21006KT 150V270 9999 FEW095 26/13 Q1017
  • 210820Z 24007KT 200V280 CAVOK 24/13 Q1017 NOSIG
  • 210750Z 26005KT CAVOK 21/13 Q1017 NOSIG
  • 210720Z 24006KT CAVOK 21/13 Q1017 NOSIG
  • 210650Z 26007KT CAVOK 20/13 Q1017 NOSIG
  • 210620Z 24009KT CAVOK 18/13 Q1016 NOSIG

TAF TAF LSGG
Valide du 21 à 09h jusqu'au 22 à 15h UTC


210825Z 2109/2215 23010KT CAVOK TX27/2114Z TN11/2205Z TX22/2205Z
BECMG 2110/2112 23015G25KT 9999 BKN060
PROB40
TEMPO 2115/2121 32015KT 9999 SHRA BKN040
BECMG 2123/2201 VRB03KT
ATIS : +41 22 417 40 81
Pas de NOTAMs connus pour ce terrain.



MET'MAP, la Météo Aéronautique d'un coup d'oeil ! - Copyright ORBIFLY Décembre 2007 - Disclaimer

ORBIFLY MET'MAP TEAM :

Programmation & Développement : Alexandra Zaïnal
Conception & Développement : Baudouin d'Aumeries
Co-Programmation & Développement : Marc-Olivier Méhu
Soutien technique & logistique : Manuel Goepfert

Contact : metmap@orbifly.com




SOURCES & CREDITS :

   NOAA